createdAt,value
2022-09-30T00:03:59.019Z,99
2022-09-30T00:14:00.155Z,99
2022-09-30T00:24:00.810Z,99
2022-09-30T00:34:01.658Z,99
2022-09-30T00:44:02.399Z,99
2022-09-30T00:54:02.801Z,99
2022-09-30T01:14:03.730Z,99
2022-09-30T01:24:07.481Z,99
2022-09-30T01:34:04.752Z,99
2022-09-30T01:44:05.492Z,99
2022-09-30T01:54:05.747Z,99
2022-09-30T02:14:06.948Z,100
2022-09-30T02:34:08.716Z,100
2022-09-30T02:44:09.666Z,100
2022-09-30T02:54:09.701Z,100
2022-09-30T03:04:10.524Z,100
2022-09-30T03:14:11.306Z,100
2022-09-30T03:24:11.460Z,100
2022-09-30T03:34:12.219Z,100
2022-09-30T03:44:13.759Z,100
2022-09-30T03:54:14.172Z,100
2022-09-30T04:04:15.248Z,100
2022-09-30T04:14:15.607Z,100
2022-09-30T04:24:16.615Z,100
2022-09-30T04:34:17.288Z,100
2022-09-30T04:44:17.639Z,100
2022-09-30T04:54:18.723Z,100
2022-09-30T05:04:19.462Z,100
2022-09-30T05:14:19.921Z,100
2022-09-30T05:24:20.238Z,100
2022-09-30T05:34:21.115Z,100
2022-09-30T05:44:21.229Z,100
2022-09-30T05:54:22.062Z,100
2022-09-30T06:04:22.634Z,100
2022-09-30T06:14:22.805Z,100
2022-09-30T06:24:23.587Z,100
2022-09-30T06:34:23.788Z,100
2022-09-30T06:54:24.547Z,100
2022-09-30T07:14:24.994Z,100
2022-09-30T07:34:26.134Z,100
2022-09-30T07:54:28.072Z,100
2022-09-30T08:14:28.884Z,98
2022-09-30T08:24:29.444Z,97
2022-09-30T08:34:29.858Z,97
2022-09-30T08:44:30.539Z,95
2022-09-30T08:54:31.093Z,93
2022-09-30T09:14:32.964Z,90
2022-09-30T09:24:33.711Z,88
2022-09-30T09:34:36.887Z,85
2022-09-30T09:44:34.905Z,84
2022-09-30T09:54:35.380Z,81
2022-09-30T10:04:35.930Z,80
2022-09-30T10:14:36.323Z,78
2022-09-30T10:24:37.312Z,76
2022-09-30T10:34:37.718Z,74
2022-09-30T10:44:38.278Z,73
2022-09-30T10:54:38.891Z,72
2022-09-30T11:04:39.402Z,72
2022-09-30T11:14:45.890Z,72
2022-09-30T11:24:46.971Z,71
2022-09-30T11:34:47.291Z,69
2022-09-30T11:54:48.635Z,66
2022-09-30T12:04:49.583Z,65
2022-09-30T12:14:49.839Z,66
2022-09-30T12:24:50.061Z,65
2022-09-30T12:34:50.994Z,65
2022-09-30T12:44:51.975Z,66
2022-09-30T12:54:52.845Z,62
2022-09-30T13:04:53.008Z,60
2022-09-30T13:14:53.578Z,60
2022-09-30T13:24:54.405Z,60
2022-09-30T13:34:55.247Z,62
2022-09-30T13:44:57.483Z,59
2022-09-30T13:54:56.327Z,61
2022-09-30T14:04:56.638Z,59
2022-09-30T14:14:57.198Z,60
2022-09-30T14:24:57.307Z,58
2022-09-30T14:34:57.643Z,60
2022-09-30T14:44:57.813Z,60
2022-09-30T14:54:58.713Z,59
2022-09-30T15:05:01.450Z,58
2022-09-30T15:15:00.371Z,56
2022-09-30T15:25:01.010Z,56
2022-09-30T15:45:01.581Z,58
2022-09-30T15:55:01.965Z,58
2022-09-30T16:05:02.243Z,59
2022-09-30T16:15:02.941Z,60
2022-09-30T16:25:03.775Z,61
2022-09-30T16:35:04.133Z,63
2022-09-30T16:45:04.940Z,64
2022-09-30T16:55:05.636Z,65
2022-09-30T17:05:06.200Z,66
2022-09-30T17:15:06.760Z,66
2022-09-30T17:25:07.621Z,67
2022-09-30T17:35:07.787Z,68
2022-09-30T17:45:08.727Z,69
2022-09-30T17:55:08.900Z,70
2022-09-30T18:05:09.554Z,72
2022-09-30T18:15:10.660Z,74
2022-09-30T18:25:11.292Z,76
2022-09-30T18:35:11.812Z,78
2022-09-30T18:45:12.854Z,79
2022-09-30T18:55:13.053Z,81
2022-09-30T19:05:13.811Z,82
2022-09-30T19:15:14.314Z,84
2022-09-30T19:25:14.483Z,85
2022-09-30T19:35:15.565Z,86
2022-09-30T19:45:16.824Z,87
2022-09-30T19:55:17.245Z,88
2022-09-30T20:05:18.222Z,89
2022-09-30T20:15:19.236Z,90
2022-09-30T20:25:20.116Z,90
2022-09-30T20:35:21.168Z,89
2022-09-30T20:45:21.884Z,87
2022-09-30T20:55:22.021Z,85
2022-09-30T21:05:22.166Z,83
2022-09-30T21:15:22.605Z,82
2022-09-30T21:25:22.734Z,82
2022-09-30T21:35:23.387Z,81
2022-09-30T21:45:24.324Z,81
2022-09-30T21:55:24.723Z,80
2022-09-30T22:05:25.651Z,79
2022-09-30T22:15:26.406Z,78
2022-09-30T22:25:26.858Z,77
2022-09-30T22:35:27.883Z,77
2022-09-30T22:45:28.735Z,76
2022-09-30T22:55:29.387Z,76
2022-09-30T23:05:29.816Z,76
2022-09-30T23:15:30.467Z,75
2022-09-30T23:25:30.568Z,75
2022-09-30T23:35:31.089Z,74
2022-09-30T23:45:32.168Z,74
2022-09-30T23:55:32.322Z,74
